Time,TemperatureF,DewpointF,PressureIn,WindDirection,WindDirectionDegrees,WindSpeedMPH,WindSpeedGustMPH,Humidity,HourlyPrecipIn,Conditions,Clouds,dailyrainin,SoftwareType,DateUTC
2013-06-17 00:07:00,69.8,69.2,29.78,WSW,247,0.0,-999.0,98,-99.99,,,0.00,Acu-Link.com,2013-06-17 04:07:00,
2013-06-17 00:22:00,69.3,68.7,29.78,West,270,0.0,-999.0,98,-99.99,,,0.00,Acu-Link.com,2013-06-17 04:22:00,
2013-06-17 00:37:00,69.1,68.5,29.78,West,270,0.0,-999.0,98,-99.99,,,0.00,Acu-Link.com,2013-06-17 04:37:00,
2013-06-17 00:52:00,68.7,68.1,29.79,SSW,202,0.0,-999.0,98,-99.99,,,0.00,Acu-Link.com,2013-06-17 04:52:00,
2013-06-17 01:08:00,68.2,67.6,29.79,SW,225,0.0,-999.0,98,-99.99,,,0.00,Acu-Link.com,2013-06-17 05:08:00,
2013-06-17 01:23:00,67.6,67.1,29.79,WSW,247,0.0,-999.0,98,-99.99,,,0.00,Acu-Link.com,2013-06-17 05:23:00,
2013-06-17 01:38:00,67.1,66.5,29.79,SSW,202,0.0,-999.0,98,-99.99,,,0.00,Acu-Link.com,2013-06-17 05:38:00,
2013-06-17 01:53:00,66.7,66.2,29.79,West,270,0.0,-999.0,98,-99.99,,,0.00,Acu-Link.com,2013-06-17 05:53:00,
2013-06-17 02:09:00,66.2,65.6,29.79,West,270,0.0,-999.0,98,-99.99,,,0.00,Acu-Link.com,2013-06-17 06:09:00,
2013-06-17 02:24:00,65.8,65.3,29.79,SW,225,0.0,-999.0,98,-99.99,,,0.00,Acu-Link.com,2013-06-17 06:24:00,
2013-06-17 02:39:00,65.5,64.9,29.79,SW,225,0.0,-999.0,98,-99.99,,,0.00,Acu-Link.com,2013-06-17 06:39:00,
2013-06-17 02:54:00,65.3,64.7,29.79,SW,225,0.0,-999.0,98,-99.99,,,0.00,Acu-Link.com,2013-06-17 06:54:00,
2013-06-17 03:09:00,64.9,64.4,29.79,West,270,0.0,-999.0,98,-99.99,,,0.00,Acu-Link.com,2013-06-17 07:09:00,
2013-06-17 03:25:00,64.6,64.0,29.80,SW,225,0.0,-999.0,98,-99.99,,,0.00,Acu-Link.com,2013-06-17 07:25:00,
2013-06-17 03:40:00,64.4,63.8,29.80,WSW,247,0.0,-999.0,98,-99.99,,,0.00,Acu-Link.com,2013-06-17 07:40:00,
2013-06-17 03:55:00,64.2,63.6,29.80,SW,225,0.0,-999.0,98,-99.99,,,0.00,Acu-Link.com,2013-06-17 07:55:00,
2013-06-17 04:10:00,63.9,63.3,29.80,SW,225,0.0,-999.0,98,-99.99,,,0.00,Acu-Link.com,2013-06-17 08:10:00,
2013-06-17 04:26:00,64.0,63.5,29.80,SW,225,0.0,-999.0,98,-99.99,,,0.00,Acu-Link.com,2013-06-17 08:26:00,
2013-06-17 04:41:00,63.9,63.3,29.81,WNW,292,0.0,-999.0,98,-99.99,,,0.00,Acu-Link.com,2013-06-17 08:41:00,
2013-06-17 04:56:00,63.9,63.3,29.80,SSW,202,0.0,-999.0,98,-99.99,,,0.00,Acu-Link.com,2013-06-17 08:56:00,
2013-06-17 05:11:00,63.7,63.1,29.82,South,180,0.0,-999.0,98,-99.99,,,0.00,Acu-Link.com,2013-06-17 09:11:00,
2013-06-17 05:26:00,63.7,63.1,29.81,South,180,0.0,-999.0,98,-99.99,,,0.00,Acu-Link.com,2013-06-17 09:26:00,
2013-06-17 05:42:00,63.7,63.1,29.82,WSW,247,0.0,-999.0,98,-99.99,,,0.00,Acu-Link.com,2013-06-17 09:42:00,
2013-06-17 05:57:00,63.7,63.1,29.82,SSW,202,0.0,-999.0,98,-99.99,,,0.00,Acu-Link.com,2013-06-17 09:57:00,
2013-06-17 06:12:00,63.9,63.3,29.83,NE,45,0.0,-999.0,98,-99.99,,,0.00,Acu-Link.com,2013-06-17 10:12:00,
2013-06-17 06:27:00,64.2,63.6,29.83,West,270,0.0,-999.0,98,-99.99,,,0.00,Acu-Link.com,2013-06-17 10:27:00,
2013-06-17 06:42:00,64.9,64.4,29.82,South,180,0.0,-999.0,98,-99.99,,,0.00,Acu-Link.com,2013-06-17 10:42:00,
2013-06-17 06:58:00,65.5,64.9,29.83,South,180,0.0,-999.0,98,-99.99,,,0.00,Acu-Link.com,2013-06-17 10:58:00,
2013-06-17 07:13:00,66.4,65.8,29.84,South,180,0.0,-999.0,98,-99.99,,,0.00,Acu-Link.com,2013-06-17 11:13:00,
2013-06-17 07:28:00,66.4,65.8,29.84,SSW,202,0.0,-999.0,98,-99.99,,,0.00,Acu-Link.com,2013-06-17 11:28:00,
2013-06-17 07:43:00,66.4,65.8,29.84,SSW,202,0.0,-999.0,98,-99.99,,,0.00,Acu-Link.com,2013-06-17 11:43:00,
2013-06-17 07:58:00,66.4,65.8,29.84,SSW,202,0.0,-999.0,98,-99.99,,,0.00,Acu-Link.com,2013-06-17 11:58:00,
2013-06-17 08:14:00,66.4,65.8,29.84,SSW,202,0.0,-999.0,98,-99.99,,,0.00,Acu-Link.com,2013-06-17 12:14:00,
2013-06-17 08:29:00,66.4,65.8,29.84,SSW,202,0.0,-999.0,98,-99.99,,,0.00,Acu-Link.com,2013-06-17 12:29:00,
2013-06-17 08:44:00,66.4,65.8,29.84,WNW,292,0.0,-999.0,98,-99.99,,,0.00,Acu-Link.com,2013-06-17 12:44:00,
2013-06-17 08:59:00,66.4,65.8,29.83,WNW,292,0.0,-999.0,98,-99.99,,,0.00,Acu-Link.com,2013-06-17 12:59:00,
2013-06-17 09:14:00,66.4,65.8,29.83,WNW,292,0.0,-999.0,98,-99.99,,,0.00,Acu-Link.com,2013-06-17 13:14:00,
2013-06-17 09:30:00,66.4,65.8,29.83,WNW,292,0.0,-999.0,98,-99.99,,,0.00,Acu-Link.com,2013-06-17 13:30:00,
2013-06-17 09:45:00,66.4,65.8,29.83,WNW,292,0.0,-999.0,98,-99.99,,,0.00,Acu-Link.com,2013-06-17 13:45:00,
2013-06-17 10:00:00,79.2,78.5,29.82,SE,135,0.0,-999.0,98,-99.99,,,0.00,Acu-Link.com,2013-06-17 14:00:00,
2013-06-17 10:15:00,79.0,78.4,29.82,NNW,337,3.1,-999.0,98,-99.99,,,0.00,Acu-Link.com,2013-06-17 14:15:00,
2013-06-17 10:31:00,80.1,79.4,29.82,West,270,0.0,-999.0,98,-99.99,,,0.00,Acu-Link.com,2013-06-17 14:31:00,
2013-06-17 10:46:00,80.1,79.4,29.81,SE,135,0.0,-999.0,98,-99.99,,,0.00,Acu-Link.com,2013-06-17 14:46:00,
2013-06-17 11:01:00,83.5,82.9,29.81,NW,315,2.2,-999.0,98,-99.99,,,0.00,Acu-Link.com,2013-06-17 15:01:00,
2013-06-17 11:16:00,82.6,82.0,29.80,West,270,3.1,-999.0,98,-99.99,,,0.00,Acu-Link.com,2013-06-17 15:16:00,
2013-06-17 11:31:00,82.8,82.1,29.80,SW,225,1.1,-999.0,98,-99.99,,,0.00,Acu-Link.com,2013-06-17 15:31:00,
2013-06-17 11:47:00,84.2,83.6,29.80,West,270,3.1,-999.0,98,-99.99,,,0.00,Acu-Link.com,2013-06-17 15:47:00,
2013-06-17 12:02:00,84.6,83.9,29.80,NNW,337,1.6,-999.0,98,-99.99,,,0.00,Acu-Link.com,2013-06-17 16:02:00,
2013-06-17 12:17:00,82.8,82.1,29.80,East,90,0.0,-999.0,98,-99.99,,,0.00,Acu-Link.com,2013-06-17 16:17:00,
2013-06-17 12:32:00,85.3,84.6,29.79,WSW,247,3.1,-999.0,98,-99.99,,,0.00,Acu-Link.com,2013-06-17 16:32:00,
2013-06-17 12:47:00,85.3,84.6,29.79,ESE,112,0.0,-999.0,98,-99.99,,,0.00,Acu-Link.com,2013-06-17 16:47:00,
2013-06-17 13:02:00,83.3,82.7,29.80,SW,225,0.0,-999.0,98,-99.99,,,0.00,Acu-Link.com,2013-06-17 17:02:00,
2013-06-17 13:18:00,85.3,84.6,29.79,SSE,157,2.7,-999.0,98,-99.99,,,0.00,Acu-Link.com,2013-06-17 17:18:00,
2013-06-17 13:33:00,86.2,85.5,29.78,SSW,202,2.7,-999.0,98,-99.99,,,0.00,Acu-Link.com,2013-06-17 17:33:00,
2013-06-17 13:48:00,86.5,85.9,29.78,NNW,337,5.1,-999.0,98,-99.99,,,0.00,Acu-Link.com,2013-06-17 17:48:00,
2013-06-17 14:03:00,86.4,85.7,29.78,NNW,337,0.0,-999.0,98,-99.99,,,0.00,Acu-Link.com,2013-06-17 18:03:00,
2013-06-17 14:18:00,88.0,87.3,29.77,ESE,112,3.1,-999.0,98,-99.99,,,0.00,Acu-Link.com,2013-06-17 18:18:00,
2013-06-17 14:34:00,86.7,86.1,29.77,SW,225,1.6,-999.0,98,-99.99,,,0.00,Acu-Link.com,2013-06-17 18:34:00,
2013-06-17 14:49:00,85.8,85.2,29.77,SSW,202,0.0,-999.0,98,-99.99,,,0.00,Acu-Link.com,2013-06-17 18:49:00,
2013-06-17 15:04:00,86.2,85.5,29.77,SW,225,2.7,-999.0,98,-99.99,,,0.00,Acu-Link.com,2013-06-17 19:04:00,
2013-06-17 15:19:00,86.0,85.4,29.77,West,270,0.0,-999.0,98,-99.99,,,0.00,Acu-Link.com,2013-06-17 19:19:00,
2013-06-17 15:35:00,85.3,84.6,29.77,WNW,292,1.6,-999.0,98,-99.99,,,0.00,Acu-Link.com,2013-06-17 19:35:00,
2013-06-17 15:50:00,84.4,83.8,29.77,WNW,292,5.8,-999.0,98,-99.99,,,0.00,Acu-Link.com,2013-06-17 19:50:00,
2013-06-17 16:05:00,84.4,83.8,29.77,West,270,3.8,-999.0,98,-99.99,,,0.00,Acu-Link.com,2013-06-17 20:05:00,
2013-06-17 16:20:00,84.6,83.9,29.76,NNW,337,4.3,-999.0,98,-99.99,,,0.00,Acu-Link.com,2013-06-17 20:20:00,
2013-06-17 16:35:00,84.7,84.1,29.76,North,0,2.2,-999.0,98,-99.99,,,0.00,Acu-Link.com,2013-06-17 20:35:00,
2013-06-17 16:51:00,84.9,84.3,29.75,South,180,2.2,-999.0,98,-99.99,,,0.00,Acu-Link.com,2013-06-17 20:51:00,
2013-06-17 17:06:00,84.9,84.3,29.75,WSW,247,2.2,-999.0,98,-99.99,,,0.00,Acu-Link.com,2013-06-17 21:06:00,
2013-06-17 17:21:00,84.9,84.3,29.76,SSW,202,0.0,-999.0,98,-99.99,,,0.00,Acu-Link.com,2013-06-17 21:21:00,
2013-06-17 17:36:00,84.6,83.9,29.75,SSE,157,0.0,-999.0,98,-99.99,,,0.00,Acu-Link.com,2013-06-17 21:36:00,
2013-06-17 17:51:00,84.2,83.6,29.75,WSW,247,1.1,-999.0,98,-99.99,,,0.00,Acu-Link.com,2013-06-17 21:51:00,
2013-06-17 18:07:00,84.4,83.8,29.75,West,270,2.7,-999.0,98,-99.99,,,0.00,Acu-Link.com,2013-06-17 22:07:00,
2013-06-17 18:22:00,84.4,83.8,29.76,West,270,0.0,-999.0,98,-99.99,,,0.00,Acu-Link.com,2013-06-17 22:22:00,
2013-06-17 18:37:00,84.0,83.4,29.77,SSW,202,0.0,-999.0,98,-99.99,,,0.00,Acu-Link.com,2013-06-17 22:37:00,
2013-06-17 18:52:00,83.8,83.2,29.76,West,270,0.0,-999.0,98,-99.99,,,0.00,Acu-Link.com,2013-06-17 22:52:00,
2013-06-17 19:07:00,83.7,83.0,29.76,SSW,202,0.0,-999.0,98,-99.99,,,0.00,Acu-Link.com,2013-06-17 23:07:00,
2013-06-17 19:23:00,82.8,82.1,29.77,WSW,247,0.0,-999.0,98,-99.99,,,0.00,Acu-Link.com,2013-06-17 23:23:00,
2013-06-17 19:38:00,82.0,81.4,29.77,West,270,0.0,-999.0,98,-99.99,,,0.00,Acu-Link.com,2013-06-17 23:38:00,
2013-06-17 19:53:00,82.0,81.4,29.78,West,270,0.0,-999.0,98,-99.99,,,0.00,Acu-Link.com,2013-06-17 23:53:00,
2013-06-17 20:08:00,81.5,80.9,29.78,West,270,0.0,-999.0,98,-99.99,,,0.00,Acu-Link.com,2013-06-18 00:08:00,
2013-06-17 20:24:00,81.3,80.7,29.79,SW,225,0.0,-999.0,98,-99.99,,,0.00,Acu-Link.com,2013-06-18 00:24:00,
2013-06-17 20:39:00,80.6,80.0,29.80,WSW,247,0.0,-999.0,98,-99.99,,,0.00,Acu-Link.com,2013-06-18 00:39:00,
2013-06-17 20:54:00,80.4,79.8,29.81,WNW,292,0.0,-999.0,98,-99.99,,,0.00,Acu-Link.com,2013-06-18 00:54:00,
2013-06-17 21:09:00,78.4,77.8,29.81,SW,225,0.0,-999.0,98,-99.99,,,0.00,Acu-Link.com,2013-06-18 01:09:00,
2013-06-17 21:24:00,77.4,76.7,29.81,SSW,202,0.0,-999.0,98,-99.99,,,0.00,Acu-Link.com,2013-06-18 01:24:00,
2013-06-17 21:40:00,76.3,75.7,29.81,South,180,0.0,-999.0,98,-99.99,,,0.00,Acu-Link.com,2013-06-18 01:40:00,
2013-06-17 21:55:00,75.2,74.6,29.82,SW,225,0.0,-999.0,98,-99.99,,,0.00,Acu-Link.com,2013-06-18 01:55:00,
2013-06-17 22:10:00,74.5,73.9,29.82,SSW,202,0.0,-999.0,98,-99.99,,,0.00,Acu-Link.com,2013-06-18 02:10:00,
2013-06-17 22:25:00,73.6,73.0,29.83,South,180,0.0,-999.0,98,-99.99,,,0.00,Acu-Link.com,2013-06-18 02:25:00,
2013-06-17 22:40:00,72.5,71.9,29.83,West,270,0.0,-999.0,98,-99.99,,,0.00,Acu-Link.com,2013-06-18 02:40:00,
2013-06-17 22:56:00,72.1,71.5,29.83,SW,225,0.0,-999.0,98,-99.99,,,0.00,Acu-Link.com,2013-06-18 02:56:00,
2013-06-17 23:11:00,71.6,71.0,29.83,South,180,0.0,-999.0,98,-99.99,,,0.00,Acu-Link.com,2013-06-18 03:11:00,
2013-06-17 23:26:00,71.2,70.6,29.83,SW,225,0.0,-999.0,98,-99.99,,,0.00,Acu-Link.com,2013-06-18 03:26:00,
2013-06-17 23:41:00,70.5,69.9,29.83,SSE,157,0.0,-999.0,98,-99.99,,,0.00,Acu-Link.com,2013-06-18 03:41:00,
2013-06-17 23:56:00,70.2,69.6,29.83,West,270,0.0,-999.0,98,-99.99,,,0.00,Acu-Link.com,2013-06-18 03:56:00,